sensor_id;sensor_type;location;lat;lon;timestamp;temperature;humidity
14475;DHT22;7323;50.848;4.334;2022-10-13T00:01:46;14.90;45.00
14475;DHT22;7323;50.848;4.334;2022-10-13T00:04:11;14.90;44.40
14475;DHT22;7323;50.848;4.334;2022-10-13T00:06:37;14.90;45.10
14475;DHT22;7323;50.848;4.334;2022-10-13T00:09:03;14.80;46.20
14475;DHT22;7323;50.848;4.334;2022-10-13T00:11:29;14.80;47.10
14475;DHT22;7323;50.848;4.334;2022-10-13T00:13:57;14.80;47.60
14475;DHT22;7323;50.848;4.334;2022-10-13T00:16:23;14.80;49.30
14475;DHT22;7323;50.848;4.334;2022-10-13T00:18:50;14.70;50.90
14475;DHT22;7323;50.848;4.334;2022-10-13T00:21:24;14.80;50.10
14475;DHT22;7323;50.848;4.334;2022-10-13T00:23:52;14.80;49.30
14475;DHT22;7323;50.848;4.334;2022-10-13T00:26:20;14.80;49.80
14475;DHT22;7323;50.848;4.334;2022-10-13T00:28:45;14.80;49.70
14475;DHT22;7323;50.848;4.334;2022-10-13T00:31:27;14.80;49.40
14475;DHT22;7323;50.848;4.334;2022-10-13T00:33:53;14.80;49.70
14475;DHT22;7323;50.848;4.334;2022-10-13T00:36:20;14.80;49.20
14475;DHT22;7323;50.848;4.334;2022-10-13T00:38:47;14.80;51.30
14475;DHT22;7323;50.848;4.334;2022-10-13T00:41:13;14.80;52.70
14475;DHT22;7323;50.848;4.334;2022-10-13T00:46:14;14.70;53.10
14475;DHT22;7323;50.848;4.334;2022-10-13T00:48:41;14.70;53.10
14475;DHT22;7323;50.848;4.334;2022-10-13T00:51:08;14.90;52.40
14475;DHT22;7323;50.848;4.334;2022-10-13T00:53:37;14.80;52.10
14475;DHT22;7323;50.848;4.334;2022-10-13T00:56:07;14.90;51.30
14475;DHT22;7323;50.848;4.334;2022-10-13T00:58:34;14.90;46.80
14475;DHT22;7323;50.848;4.334;2022-10-13T01:01:03;14.90;47.10
14475;DHT22;7323;50.848;4.334;2022-10-13T01:03:29;14.90;47.20
14475;DHT22;7323;50.848;4.334;2022-10-13T01:05:58;14.90;47.10
14475;DHT22;7323;50.848;4.334;2022-10-13T01:08:25;14.80;49.10
14475;DHT22;7323;50.848;4.334;2022-10-13T01:13:55;14.70;50.70
14475;DHT22;7323;50.848;4.334;2022-10-13T01:19:27;14.70;54.30
14475;DHT22;7323;50.848;4.334;2022-10-13T01:25:01;15.00;47.10
14475;DHT22;7323;50.848;4.334;2022-10-13T01:30:11;14.70;49.20
14475;DHT22;7323;50.848;4.334;2022-10-13T01:32:51;14.50;55.80
14475;DHT22;7323;50.848;4.334;2022-10-13T01:38:36;14.40;62.80
14475;DHT22;7323;50.848;4.334;2022-10-13T01:41:10;14.30;65.20
14475;DHT22;7323;50.848;4.334;2022-10-13T01:47:01;14.40;66.40
14475;DHT22;7323;50.848;4.334;2022-10-13T01:49:32;14.40;64.50
14475;DHT22;7323;50.848;4.334;2022-10-13T01:52:06;14.40;63.90
14475;DHT22;7323;50.848;4.334;2022-10-13T01:54:33;14.60;59.10
14475;DHT22;7323;50.848;4.334;2022-10-13T01:56:59;14.40;60.20
14475;DHT22;7323;50.848;4.334;2022-10-13T01:59:27;14.40;60.60
14475;DHT22;7323;50.848;4.334;2022-10-13T02:02:30;14.50;59.90
14475;DHT22;7323;50.848;4.334;2022-10-13T02:08:03;14.40;64.40
14475;DHT22;7323;50.848;4.334;2022-10-13T02:10:37;14.40;66.00
14475;DHT22;7323;50.848;4.334;2022-10-13T02:13:06;14.50;62.30
14475;DHT22;7323;50.848;4.334;2022-10-13T02:16:02;14.40;63.60
14475;DHT22;7323;50.848;4.334;2022-10-13T02:18:32;14.40;62.90
14475;DHT22;7323;50.848;4.334;2022-10-13T02:20:59;14.50;63.00
14475;DHT22;7323;50.848;4.334;2022-10-13T02:23:26;14.50;62.90
14475;DHT22;7323;50.848;4.334;2022-10-13T02:25:52;14.40;63.10
14475;DHT22;7323;50.848;4.334;2022-10-13T02:28:20;14.40;63.40
14475;DHT22;7323;50.848;4.334;2022-10-13T02:30:45;14.40;65.50
14475;DHT22;7323;50.848;4.334;2022-10-13T02:33:12;14.40;67.30
14475;DHT22;7323;50.848;4.334;2022-10-13T02:35:38;14.20;69.40
14475;DHT22;7323;50.848;4.334;2022-10-13T02:38:04;14.30;67.70
14475;DHT22;7323;50.848;4.334;2022-10-13T02:40:33;14.30;68.50
14475;DHT22;7323;50.848;4.334;2022-10-13T02:43:01;14.20;68.80
14475;DHT22;7323;50.848;4.334;2022-10-13T02:45:30;14.20;70.30
14475;DHT22;7323;50.848;4.334;2022-10-13T02:48:10;14.20;72.40
14475;DHT22;7323;50.848;4.334;2022-10-13T02:50:37;14.10;73.10
14475;DHT22;7323;50.848;4.334;2022-10-13T02:53:03;14.10;74.50
14475;DHT22;7323;50.848;4.334;2022-10-13T02:55:29;14.10;75.30
14475;DHT22;7323;50.848;4.334;2022-10-13T02:57:56;14.10;75.00
14475;DHT22;7323;50.848;4.334;2022-10-13T03:00:21;14.10;74.60
14475;DHT22;7323;50.848;4.334;2022-10-13T03:02:48;14.10;75.00
14475;DHT22;7323;50.848;4.334;2022-10-13T03:05:14;14.10;76.10
14475;DHT22;7323;50.848;4.334;2022-10-13T03:07:41;14.10;74.90
14475;DHT22;7323;50.848;4.334;2022-10-13T03:10:07;14.10;76.70
14475;DHT22;7323;50.848;4.334;2022-10-13T03:12:41;14.10;76.80
14475;DHT22;7323;50.848;4.334;2022-10-13T03:15:07;14.00;77.50
14475;DHT22;7323;50.848;4.334;2022-10-13T03:17:33;14.10;76.20
14475;DHT22;7323;50.848;4.334;2022-10-13T03:19:59;14.20;73.20
14475;DHT22;7323;50.848;4.334;2022-10-13T03:22:24;14.30;69.40
14475;DHT22;7323;50.848;4.334;2022-10-13T03:24:50;14.30;70.60
14475;DHT22;7323;50.848;4.334;2022-10-13T03:27:16;14.20;72.90
14475;DHT22;7323;50.848;4.334;2022-10-13T03:29:41;14.20;74.10
14475;DHT22;7323;50.848;4.334;2022-10-13T03:32:07;14.20;73.30
14475;DHT22;7323;50.848;4.334;2022-10-13T03:34:33;14.30;73.20
14475;DHT22;7323;50.848;4.334;2022-10-13T03:36:58;14.20;72.70
14475;DHT22;7323;50.848;4.334;2022-10-13T03:39:24;14.20;74.40
14475;DHT22;7323;50.848;4.334;2022-10-13T03:41:50;14.20;71.90
14475;DHT22;7323;50.848;4.334;2022-10-13T03:44:15;14.10;72.60
14475;DHT22;7323;50.848;4.334;2022-10-13T03:46:41;14.20;73.70
14475;DHT22;7323;50.848;4.334;2022-10-13T03:49:09;14.10;73.20
14475;DHT22;7323;50.848;4.334;2022-10-13T03:51:35;14.20;73.70
14475;DHT22;7323;50.848;4.334;2022-10-13T03:54:01;14.30;68.60
14475;DHT22;7323;50.848;4.334;2022-10-13T03:56:27;14.50;62.80
14475;DHT22;7323;50.848;4.334;2022-10-13T03:58:55;14.50;59.10
14475;DHT22;7323;50.848;4.334;2022-10-13T04:01:23;14.50;58.20
14475;DHT22;7323;50.848;4.334;2022-10-13T04:03:50;14.40;61.10
14475;DHT22;7323;50.848;4.334;2022-10-13T04:06:16;14.40;62.30
14475;DHT22;7323;50.848;4.334;2022-10-13T04:08:42;14.20;66.30
14475;DHT22;7323;50.848;4.334;2022-10-13T04:11:11;14.10;69.50
14475;DHT22;7323;50.848;4.334;2022-10-13T04:13:38;14.10;71.80
14475;DHT22;7323;50.848;4.334;2022-10-13T04:16:11;14.10;73.90
14475;DHT22;7323;50.848;4.334;2022-10-13T04:18:37;14.20;75.30
14475;DHT22;7323;50.848;4.334;2022-10-13T04:21:08;14.20;72.70
14475;DHT22;7323;50.848;4.334;2022-10-13T04:23:36;14.20;73.20
14475;DHT22;7323;50.848;4.334;2022-10-13T04:26:03;14.20;73.40
14475;DHT22;7323;50.848;4.334;2022-10-13T04:28:29;14.20;72.70
14475;DHT22;7323;50.848;4.334;2022-10-13T04:30:58;14.30;72.20
14475;DHT22;7323;50.848;4.334;2022-10-13T04:33:23;14.20;71.50
14475;DHT22;7323;50.848;4.334;2022-10-13T04:35:49;14.20;72.80
14475;DHT22;7323;50.848;4.334;2022-10-13T04:38:16;14.20;71.90
14475;DHT22;7323;50.848;4.334;2022-10-13T04:40:41;14.10;73.10
14475;DHT22;7323;50.848;4.334;2022-10-13T04:43:07;14.10;74.50
14475;DHT22;7323;50.848;4.334;2022-10-13T04:45:32;14.10;75.30
14475;DHT22;7323;50.848;4.334;2022-10-13T04:47:59;14.10;76.10
14475;DHT22;7323;50.848;4.334;2022-10-13T04:50:25;14.10;76.80
14475;DHT22;7323;50.848;4.334;2022-10-13T04:52:51;14.00;77.40
14475;DHT22;7323;50.848;4.334;2022-10-13T04:55:17;14.00;78.60
14475;DHT22;7323;50.848;4.334;2022-10-13T04:57:42;14.10;78.50
14475;DHT22;7323;50.848;4.334;2022-10-13T05:00:09;14.00;78.20
14475;DHT22;7323;50.848;4.334;2022-10-13T05:02:35;14.10;75.40
14475;DHT22;7323;50.848;4.334;2022-10-13T05:05:03;14.20;75.20
14475;DHT22;7323;50.848;4.334;2022-10-13T05:07:30;14.10;74.90
14475;DHT22;7323;50.848;4.334;2022-10-13T05:09:56;14.10;73.90
14475;DHT22;7323;50.848;4.334;2022-10-13T05:12:23;14.10;73.60
14475;DHT22;7323;50.848;4.334;2022-10-13T05:14:48;14.20;73.90
14475;DHT22;7323;50.848;4.334;2022-10-13T05:17:14;14.20;73.40
14475;DHT22;7323;50.848;4.334;2022-10-13T05:19:39;14.10;74.30
14475;DHT22;7323;50.848;4.334;2022-10-13T05:22:06;14.20;74.40
14475;DHT22;7323;50.848;4.334;2022-10-13T05:24:32;14.20;73.20
14475;DHT22;7323;50.848;4.334;2022-10-13T05:27:05;14.20;71.80
14475;DHT22;7323;50.848;4.334;2022-10-13T05:29:31;14.20;73.20
14475;DHT22;7323;50.848;4.334;2022-10-13T05:31:57;14.30;73.00
14475;DHT22;7323;50.848;4.334;2022-10-13T05:34:23;14.30;69.90
14475;DHT22;7323;50.848;4.334;2022-10-13T05:36:48;14.20;70.20
14475;DHT22;7323;50.848;4.334;2022-10-13T05:39:14;14.30;69.70
14475;DHT22;7323;50.848;4.334;2022-10-13T05:41:39;14.50;67.10
14475;DHT22;7323;50.848;4.334;2022-10-13T05:44:07;14.30;67.30
14475;DHT22;7323;50.848;4.334;2022-10-13T05:46:33;14.20;70.20
14475;DHT22;7323;50.848;4.334;2022-10-13T05:49:03;14.20;71.80
14475;DHT22;7323;50.848;4.334;2022-10-13T05:55:22;14.10;76.40
14475;DHT22;7323;50.848;4.334;2022-10-13T05:57:51;14.10;78.30
14475;DHT22;7323;50.848;4.334;2022-10-13T06:00:18;14.10;78.10
14475;DHT22;7323;50.848;4.334;2022-10-13T06:05:18;14.10;78.30
14475;DHT22;7323;50.848;4.334;2022-10-13T06:07:45;14.10;78.50
14475;DHT22;7323;50.848;4.334;2022-10-13T06:10:14;14.10;78.20
14475;DHT22;7323;50.848;4.334;2022-10-13T06:12:46;14.10;78.70
14475;DHT22;7323;50.848;4.334;2022-10-13T06:15:11;14.10;79.40
14475;DHT22;7323;50.848;4.334;2022-10-13T06:17:38;14.10;79.40
14475;DHT22;7323;50.848;4.334;2022-10-13T06:20:07;14.10;79.50
14475;DHT22;7323;50.848;4.334;2022-10-13T06:22:34;14.10;80.70
14475;DHT22;7323;50.848;4.334;2022-10-13T06:25:00;14.10;81.00
14475;DHT22;7323;50.848;4.334;2022-10-13T06:27:27;14.20;79.10
14475;DHT22;7323;50.848;4.334;2022-10-13T06:29:59;14.30;77.60
14475;DHT22;7323;50.848;4.334;2022-10-13T06:32:25;14.30;75.70
14475;DHT22;7323;50.848;4.334;2022-10-13T06:34:51;14.30;75.30
14475;DHT22;7323;50.848;4.334;2022-10-13T06:37:18;14.30;74.20
14475;DHT22;7323;50.848;4.334;2022-10-13T06:39:43;14.30;74.60
14475;DHT22;7323;50.848;4.334;2022-10-13T06:42:09;14.30;72.90
14475;DHT22;7323;50.848;4.334;2022-10-13T06:44:35;14.30;72.70
14475;DHT22;7323;50.848;4.334;2022-10-13T06:47:02;14.40;71.40
14475;DHT22;7323;50.848;4.334;2022-10-13T06:49:42;14.40;70.80
14475;DHT22;7323;50.848;4.334;2022-10-13T06:52:08;14.40;69.10
14475;DHT22;7323;50.848;4.334;2022-10-13T06:54:34;14.40;68.90
14475;DHT22;7323;50.848;4.334;2022-10-13T06:56:59;14.50;67.90
14475;DHT22;7323;50.848;4.334;2022-10-13T06:59:26;14.60;63.90
14475;DHT22;7323;50.848;4.334;2022-10-13T07:01:52;14.60;62.30
14475;DHT22;7323;50.848;4.334;2022-10-13T07:04:21;14.60;61.90
14475;DHT22;7323;50.848;4.334;2022-10-13T07:06:48;14.50;60.30
14475;DHT22;7323;50.848;4.334;2022-10-13T07:09:21;14.50;62.70
14475;DHT22;7323;50.848;4.334;2022-10-13T07:11:48;14.40;63.30
14475;DHT22;7323;50.848;4.334;2022-10-13T07:14:18;14.30;64.20
14475;DHT22;7323;50.848;4.334;2022-10-13T07:16:50;14.40;64.70
14475;DHT22;7323;50.848;4.334;2022-10-13T07:19:21;14.30;64.70
14475;DHT22;7323;50.848;4.334;2022-10-13T07:21:46;14.40;64.40
14475;DHT22;7323;50.848;4.334;2022-10-13T07:24:22;14.60;62.20
14475;DHT22;7323;50.848;4.334;2022-10-13T07:26:48;14.50;66.60
14475;DHT22;7323;50.848;4.334;2022-10-13T07:29:17;14.40;70.20
14475;DHT22;7323;50.848;4.334;2022-10-13T07:31:44;14.40;73.10
14475;DHT22;7323;50.848;4.334;2022-10-13T07:34:10;14.50;72.90
14475;DHT22;7323;50.848;4.334;2022-10-13T07:36:35;14.60;71.70
14475;DHT22;7323;50.848;4.334;2022-10-13T07:39:04;14.60;72.50
14475;DHT22;7323;50.848;4.334;2022-10-13T07:41:30;14.60;72.20
14475;DHT22;7323;50.848;4.334;2022-10-13T07:43:56;14.80;71.60
14475;DHT22;7323;50.848;4.334;2022-10-13T07:46:23;14.60;71.00
14475;DHT22;7323;50.848;4.334;2022-10-13T07:48:52;14.60;71.80
14475;DHT22;7323;50.848;4.334;2022-10-13T07:51:20;14.60;71.70
14475;DHT22;7323;50.848;4.334;2022-10-13T07:53:48;14.60;71.80
14475;DHT22;7323;50.848;4.334;2022-10-13T07:56:33;14.70;70.10
14475;DHT22;7323;50.848;4.334;2022-10-13T07:59:19;14.70;68.30
14475;DHT22;7323;50.848;4.334;2022-10-13T08:01:46;14.70;67.50
14475;DHT22;7323;50.848;4.334;2022-10-13T08:07:27;14.70;65.80
14475;DHT22;7323;50.848;4.334;2022-10-13T08:10:18;14.80;64.80
14475;DHT22;7323;50.848;4.334;2022-10-13T08:12:46;14.80;64.30
14475;DHT22;7323;50.848;4.334;2022-10-13T08:15:12;15.00;62.80
14475;DHT22;7323;50.848;4.334;2022-10-13T08:17:38;15.00;59.90
14475;DHT22;7323;50.848;4.334;2022-10-13T08:20:05;15.10;56.50
14475;DHT22;7323;50.848;4.334;2022-10-13T08:22:32;15.10;55.50
14475;DHT22;7323;50.848;4.334;2022-10-13T08:25:02;15.10;55.20
14475;DHT22;7323;50.848;4.334;2022-10-13T08:27:28;15.10;54.30
14475;DHT22;7323;50.848;4.334;2022-10-13T08:29:54;15.20;54.20
14475;DHT22;7323;50.848;4.334;2022-10-13T08:32:23;15.30;52.90
14475;DHT22;7323;50.848;4.334;2022-10-13T08:34:50;15.30;51.60
14475;DHT22;7323;50.848;4.334;2022-10-13T08:37:18;15.20;50.00
14475;DHT22;7323;50.848;4.334;2022-10-13T08:39:44;15.30;49.80
14475;DHT22;7323;50.848;4.334;2022-10-13T08:42:20;15.30;48.50
14475;DHT22;7323;50.848;4.334;2022-10-13T08:45:02;15.20;48.30
14475;DHT22;7323;50.848;4.334;2022-10-13T08:47:37;15.30;47.70
14475;DHT22;7323;50.848;4.334;2022-10-13T08:50:12;15.30;46.90
14475;DHT22;7323;50.848;4.334;2022-10-13T08:52:46;15.20;46.80
14475;DHT22;7323;50.848;4.334;2022-10-13T08:58:14;15.20;47.40
14475;DHT22;7323;50.848;4.334;2022-10-13T09:00:43;15.20;48.60
14475;DHT22;7323;50.848;4.334;2022-10-13T09:03:28;15.10;49.30
14475;DHT22;7323;50.848;4.334;2022-10-13T09:08:49;15.10;50.80
14475;DHT22;7323;50.848;4.334;2022-10-13T09:11:16;15.20;50.80
14475;DHT22;7323;50.848;4.334;2022-10-13T09:13:44;15.30;49.10
14475;DHT22;7323;50.848;4.334;2022-10-13T09:16:10;15.30;48.40
14475;DHT22;7323;50.848;4.334;2022-10-13T09:18:36;15.40;48.20
14475;DHT22;7323;50.848;4.334;2022-10-13T09:21:24;15.40;46.40
14475;DHT22;7323;50.848;4.334;2022-10-13T09:23:52;15.40;48.00
14475;DHT22;7323;50.848;4.334;2022-10-13T09:26:23;15.40;47.80
14475;DHT22;7323;50.848;4.334;2022-10-13T09:28:51;15.40;48.10
14475;DHT22;7323;50.848;4.334;2022-10-13T09:31:27;15.40;49.20
14475;DHT22;7323;50.848;4.334;2022-10-13T09:34:01;15.40;49.10
14475;DHT22;7323;50.848;4.334;2022-10-13T09:36:27;15.40;50.30
14475;DHT22;7323;50.848;4.334;2022-10-13T09:39:12;15.40;51.70
14475;DHT22;7323;50.848;4.334;2022-10-13T09:41:40;15.50;53.00
14475;DHT22;7323;50.848;4.334;2022-10-13T09:46:49;15.70;54.40
14475;DHT22;7323;50.848;4.334;2022-10-13T09:51:59;15.80;56.60
14475;DHT22;7323;50.848;4.334;2022-10-13T09:54:35;15.70;59.50
14475;DHT22;7323;50.848;4.334;2022-10-13T09:57:39;15.70;60.50
14475;DHT22;7323;50.848;4.334;2022-10-13T10:00:25;15.80;60.50
14475;DHT22;7323;50.848;4.334;2022-10-13T10:03:11;15.90;60.60
14475;DHT22;7323;50.848;4.334;2022-10-13T10:05:42;15.90;58.60
14475;DHT22;7323;50.848;4.334;2022-10-13T10:08:35;15.90;59.50
14475;DHT22;7323;50.848;4.334;2022-10-13T10:11:07;16.00;62.90
14475;DHT22;7323;50.848;4.334;2022-10-13T10:13:33;16.10;61.40
14475;DHT22;7323;50.848;4.334;2022-10-13T10:16:36;16.20;57.80
14475;DHT22;7323;50.848;4.334;2022-10-13T10:19:14;16.10;59.50
14475;DHT22;7323;50.848;4.334;2022-10-13T10:24:35;16.10;57.70
14475;DHT22;7323;50.848;4.334;2022-10-13T10:27:25;16.00;61.60
14475;DHT22;7323;50.848;4.334;2022-10-13T10:30:05;16.00;67.40
14475;DHT22;7323;50.848;4.334;2022-10-13T10:36:06;15.80;72.10
14475;DHT22;7323;50.848;4.334;2022-10-13T10:38:43;15.70;75.90
14475;DHT22;7323;50.848;4.334;2022-10-13T10:41:32;15.60;83.80
14475;DHT22;7323;50.848;4.334;2022-10-13T10:44:14;15.50;90.90
14475;DHT22;7323;50.848;4.334;2022-10-13T10:46:46;15.40;96.10
14475;DHT22;7323;50.848;4.334;2022-10-13T10:49:31;15.30;99.90
14475;DHT22;7323;50.848;4.334;2022-10-13T10:52:23;15.20;99.90
14475;DHT22;7323;50.848;4.334;2022-10-13T11:01:06;14.90;99.90
14475;DHT22;7323;50.848;4.334;2022-10-13T11:04:23;14.90;99.90
14475;DHT22;7323;50.848;4.334;2022-10-13T11:07:04;14.90;99.90
14475;DHT22;7323;50.848;4.334;2022-10-13T11:10:03;14.90;99.90
14475;DHT22;7323;50.848;4.334;2022-10-13T11:15:45;14.90;99.90
14475;DHT22;7323;50.848;4.334;2022-10-13T11:21:14;14.90;99.90
14475;DHT22;7323;50.848;4.334;2022-10-13T11:23:48;14.90;99.90
14475;DHT22;7323;50.848;4.334;2022-10-13T11:26:41;14.90;99.90
14475;DHT22;7323;50.848;4.334;2022-10-13T11:29:51;15.00;99.90
14475;DHT22;7323;50.848;4.334;2022-10-13T11:35:25;15.20;99.90
14475;DHT22;7323;50.848;4.334;2022-10-13T11:53:06;15.50;99.90
14475;DHT22;7323;50.848;4.334;2022-10-13T11:55:53;15.40;99.90
14475;DHT22;7323;50.848;4.334;2022-10-13T11:58:27;15.60;99.90
14475;DHT22;7323;50.848;4.334;2022-10-13T12:01:04;15.30;99.90
14475;DHT22;7323;50.848;4.334;2022-10-13T12:03:35;15.40;99.90
14475;DHT22;7323;50.848;4.334;2022-10-13T12:06:05;15.40;99.90
14475;DHT22;7323;50.848;4.334;2022-10-13T12:08:34;15.40;99.90
14475;DHT22;7323;50.848;4.334;2022-10-13T12:11:00;15.30;99.90
14475;DHT22;7323;50.848;4.334;2022-10-13T12:13:31;15.40;99.90
14475;DHT22;7323;50.848;4.334;2022-10-13T12:16:05;15.40;99.90
14475;DHT22;7323;50.848;4.334;2022-10-13T12:18:34;15.40;99.90
14475;DHT22;7323;50.848;4.334;2022-10-13T12:21:13;15.50;99.90
14475;DHT22;7323;50.848;4.334;2022-10-13T12:23:45;15.50;99.90
14475;DHT22;7323;50.848;4.334;2022-10-13T12:26:16;15.60;99.90
14475;DHT22;7323;50.848;4.334;2022-10-13T12:31:51;15.50;99.90
14475;DHT22;7323;50.848;4.334;2022-10-13T12:34:49;15.60;99.90
14475;DHT22;7323;50.848;4.334;2022-10-13T12:37:48;15.80;99.90
14475;DHT22;7323;50.848;4.334;2022-10-13T12:40:27;15.60;99.90
14475;DHT22;7323;50.848;4.334;2022-10-13T12:42:56;15.60;99.90
14475;DHT22;7323;50.848;4.334;2022-10-13T12:45:27;15.80;99.90
14475;DHT22;7323;50.848;4.334;2022-10-13T12:47:55;15.60;99.90
14475;DHT22;7323;50.848;4.334;2022-10-13T12:58:29;15.70;99.90
14475;DHT22;7323;50.848;4.334;2022-10-13T13:01:05;15.70;99.90
14475;DHT22;7323;50.848;4.334;2022-10-13T13:03:32;15.50;99.90
14475;DHT22;7323;50.848;4.334;2022-10-13T13:06:22;15.40;99.90
14475;DHT22;7323;50.848;4.334;2022-10-13T13:09:22;15.40;99.90
14475;DHT22;7323;50.848;4.334;2022-10-13T13:14:36;15.20;99.90
14475;DHT22;7323;50.848;4.334;2022-10-13T13:17:05;15.20;99.90
14475;DHT22;7323;50.848;4.334;2022-10-13T13:19:32;15.20;99.90
14475;DHT22;7323;50.848;4.334;2022-10-13T13:21:58;15.20;99.90
14475;DHT22;7323;50.848;4.334;2022-10-13T13:24:24;15.10;99.90
14475;DHT22;7323;50.848;4.334;2022-10-13T13:26:50;15.00;99.90
14475;DHT22;7323;50.848;4.334;2022-10-13T13:29:15;15.10;99.90
14475;DHT22;7323;50.848;4.334;2022-10-13T13:31:41;15.20;99.90
14475;DHT22;7323;50.848;4.334;2022-10-13T13:34:23;15.20;99.90
14475;DHT22;7323;50.848;4.334;2022-10-13T13:40:20;15.40;99.90
14475;DHT22;7323;50.848;4.334;2022-10-13T13:42:50;15.50;99.90
14475;DHT22;7323;50.848;4.334;2022-10-13T13:45:28;15.50;99.90
14475;DHT22;7323;50.848;4.334;2022-10-13T13:48:04;15.50;99.90
14475;DHT22;7323;50.848;4.334;2022-10-13T13:50:35;15.40;99.90
14475;DHT22;7323;50.848;4.334;2022-10-13T13:53:03;15.40;99.90
14475;DHT22;7323;50.848;4.334;2022-10-13T13:56:04;15.40;99.90
14475;DHT22;7323;50.848;4.334;2022-10-13T13:58:30;15.30;99.90
14475;DHT22;7323;50.848;4.334;2022-10-13T14:01:06;15.40;99.90
14475;DHT22;7323;50.848;4.334;2022-10-13T14:03:34;15.40;99.90
14475;DHT22;7323;50.848;4.334;2022-10-13T14:09:35;15.40;99.90
14475;DHT22;7323;50.848;4.334;2022-10-13T14:12:02;15.40;99.90
14475;DHT22;7323;50.848;4.334;2022-10-13T14:14:34;15.40;99.90
14475;DHT22;7323;50.848;4.334;2022-10-13T14:17:00;15.40;99.90
14475;DHT22;7323;50.848;4.334;2022-10-13T14:19:31;15.40;99.90
14475;DHT22;7323;50.848;4.334;2022-10-13T14:22:11;15.50;99.90
14475;DHT22;7323;50.848;4.334;2022-10-13T14:24:42;15.50;99.90
14475;DHT22;7323;50.848;4.334;2022-10-13T14:27:08;15.70;99.90
14475;DHT22;7323;50.848;4.334;2022-10-13T14:29:36;15.80;99.90
14475;DHT22;7323;50.848;4.334;2022-10-13T14:32:02;15.70;99.90
14475;DHT22;7323;50.848;4.334;2022-10-13T14:34:28;15.80;99.90
14475;DHT22;7323;50.848;4.334;2022-10-13T14:36:54;15.70;99.90
14475;DHT22;7323;50.848;4.334;2022-10-13T14:39:26;15.70;99.90
14475;DHT22;7323;50.848;4.334;2022-10-13T14:41:52;15.50;99.90
14475;DHT22;7323;50.848;4.334;2022-10-13T14:44:18;15.50;99.90
14475;DHT22;7323;50.848;4.334;2022-10-13T14:46:45;15.50;99.90
14475;DHT22;7323;50.848;4.334;2022-10-13T14:49:11;15.50;99.90
14475;DHT22;7323;50.848;4.334;2022-10-13T14:51:37;15.50;99.90
14475;DHT22;7323;50.848;4.334;2022-10-13T14:54:03;15.40;99.90
14475;DHT22;7323;50.848;4.334;2022-10-13T14:56:30;15.40;99.90
14475;DHT22;7323;50.848;4.334;2022-10-13T14:58:57;15.30;99.90
14475;DHT22;7323;50.848;4.334;2022-10-13T15:01:23;15.30;99.90
14475;DHT22;7323;50.848;4.334;2022-10-13T15:03:49;15.30;99.90
14475;DHT22;7323;50.848;4.334;2022-10-13T15:06:17;15.40;99.90
14475;DHT22;7323;50.848;4.334;2022-10-13T15:08:45;15.40;99.90
14475;DHT22;7323;50.848;4.334;2022-10-13T15:11:12;15.50;99.90
14475;DHT22;7323;50.848;4.334;2022-10-13T15:13:40;15.40;99.90
14475;DHT22;7323;50.848;4.334;2022-10-13T15:16:17;15.40;99.90
14475;DHT22;7323;50.848;4.334;2022-10-13T15:18:44;15.40;99.90
14475;DHT22;7323;50.848;4.334;2022-10-13T15:21:11;15.20;99.90
14475;DHT22;7323;50.848;4.334;2022-10-13T15:23:41;15.20;99.90
14475;DHT22;7323;50.848;4.334;2022-10-13T15:26:09;15.20;99.90
14475;DHT22;7323;50.848;4.334;2022-10-13T15:28:45;15.20;99.90
14475;DHT22;7323;50.848;4.334;2022-10-13T15:31:36;15.20;99.90
14475;DHT22;7323;50.848;4.334;2022-10-13T15:34:04;15.10;99.90
14475;DHT22;7323;50.848;4.334;2022-10-13T15:39:27;15.10;99.90
14475;DHT22;7323;50.848;4.334;2022-10-13T15:41:53;15.20;99.90
14475;DHT22;7323;50.848;4.334;2022-10-13T15:44:18;15.30;99.90
14475;DHT22;7323;50.848;4.334;2022-10-13T15:46:45;15.20;99.90
14475;DHT22;7323;50.848;4.334;2022-10-13T15:49:11;15.20;99.90
14475;DHT22;7323;50.848;4.334;2022-10-13T15:51:37;15.10;99.90
14475;DHT22;7323;50.848;4.334;2022-10-13T15:54:06;15.10;99.90
14475;DHT22;7323;50.848;4.334;2022-10-13T15:56:35;15.00;99.90
14475;DHT22;7323;50.848;4.334;2022-10-13T15:59:06;15.00;99.90
14475;DHT22;7323;50.848;4.334;2022-10-13T16:01:34;15.00;99.90
14475;DHT22;7323;50.848;4.334;2022-10-13T16:04:00;15.00;99.90
14475;DHT22;7323;50.848;4.334;2022-10-13T16:06:26;15.10;99.90
14475;DHT22;7323;50.848;4.334;2022-10-13T16:08:54;15.00;99.90
14475;DHT22;7323;50.848;4.334;2022-10-13T16:11:26;15.00;99.90
14475;DHT22;7323;50.848;4.334;2022-10-13T16:13:52;15.00;99.90
14475;DHT22;7323;50.848;4.334;2022-10-13T16:16:18;15.00;99.90
14475;DHT22;7323;50.848;4.334;2022-10-13T16:18:48;14.90;99.90
14475;DHT22;7323;50.848;4.334;2022-10-13T16:21:28;15.00;99.90
14475;DHT22;7323;50.848;4.334;2022-10-13T16:23:54;14.90;99.90
14475;DHT22;7323;50.848;4.334;2022-10-13T16:26:20;14.80;99.90
14475;DHT22;7323;50.848;4.334;2022-10-13T16:28:46;14.80;99.90
14475;DHT22;7323;50.848;4.334;2022-10-13T16:31:13;14.80;99.90
14475;DHT22;7323;50.848;4.334;2022-10-13T16:33:58;14.80;99.90
14475;DHT22;7323;50.848;4.334;2022-10-13T16:36:32;14.90;99.90
14475;DHT22;7323;50.848;4.334;2022-10-13T16:38:58;15.10;99.90
14475;DHT22;7323;50.848;4.334;2022-10-13T16:41:24;15.20;99.90
14475;DHT22;7323;50.848;4.334;2022-10-13T16:43:50;15.20;99.90
14475;DHT22;7323;50.848;4.334;2022-10-13T16:46:18;15.00;99.90
14475;DHT22;7323;50.848;4.334;2022-10-13T16:48:45;15.00;99.90
14475;DHT22;7323;50.848;4.334;2022-10-13T16:51:14;14.90;99.90
14475;DHT22;7323;50.848;4.334;2022-10-13T16:53:41;14.90;99.90
14475;DHT22;7323;50.848;4.334;2022-10-13T16:56:09;14.90;99.90
14475;DHT22;7323;50.848;4.334;2022-10-13T16:58:35;14.90;99.90
14475;DHT22;7323;50.848;4.334;2022-10-13T17:01:06;14.80;99.90
14475;DHT22;7323;50.848;4.334;2022-10-13T17:03:35;14.90;99.90
14475;DHT22;7323;50.848;4.334;2022-10-13T17:06:03;14.90;99.90
14475;DHT22;7323;50.848;4.334;2022-10-13T17:08:29;14.90;99.90
14475;DHT22;7323;50.848;4.334;2022-10-13T17:10:55;14.90;99.90
14475;DHT22;7323;50.848;4.334;2022-10-13T17:13:20;14.90;99.90
14475;DHT22;7323;50.848;4.334;2022-10-13T17:15:55;14.90;99.90
14475;DHT22;7323;50.848;4.334;2022-10-13T17:18:25;14.90;99.90
14475;DHT22;7323;50.848;4.334;2022-10-13T17:21:00;14.90;99.90
14475;DHT22;7323;50.848;4.334;2022-10-13T17:23:28;14.90;99.90
14475;DHT22;7323;50.848;4.334;2022-10-13T17:25:58;14.90;99.90
14475;DHT22;7323;50.848;4.334;2022-10-13T17:28:24;14.90;99.90
14475;DHT22;7323;50.848;4.334;2022-10-13T17:31:10;15.10;99.90
14475;DHT22;7323;50.848;4.334;2022-10-13T17:33:37;15.00;99.90
14475;DHT22;7323;50.848;4.334;2022-10-13T17:36:27;15.00;99.90
14475;DHT22;7323;50.848;4.334;2022-10-13T17:38:55;14.90;99.90
14475;DHT22;7323;50.848;4.334;2022-10-13T17:41:22;14.90;99.90
14475;DHT22;7323;50.848;4.334;2022-10-13T17:43:49;14.90;99.90
14475;DHT22;7323;50.848;4.334;2022-10-13T17:46:23;15.00;99.90
14475;DHT22;7323;50.848;4.334;2022-10-13T17:48:49;15.00;99.90
14475;DHT22;7323;50.848;4.334;2022-10-13T17:51:21;15.10;99.90